Time;durP1;ratioP1;P1;durP2;ratioP2;P2;SDS_P1;SDS_P2;PMS_P1;PMS_P2;Temp;Humidity;BMP_temperature;BMP_pressure;BME280_temperature;BME280_humidity;BME280_pressure;Samples;Min_cycle;Max_cycle;Signal;HPM_P1;HPM_P2
2023/06/13 00:00:25;;;;;;;5.05;1.90;;;;;;;17.51;54.57;97935.41;4425543;32;20110;-83
2023/06/13 00:02:53;;;;;;;3.42;1.60;;;;;;;17.81;53.68;97928.00;4425371;32;20499;-83
2023/06/13 00:05:21;;;;;;;4.90;1.83;;;;;;;17.97;52.99;97919.00;4425739;32;20204;-84
2023/06/13 00:07:49;;;;;;;3.87;1.77;;;;;;;17.50;53.55;97923.31;4425669;32;20507;-83
2023/06/13 00:10:16;;;;;;;4.35;1.70;;;;;;;16.95;54.57;97928.09;4424956;32;20098;-83
2023/06/13 00:12:46;;;;;;;4.53;1.80;;;;;;;17.64;53.59;97925.75;4425404;32;20495;-83
2023/06/13 00:15:14;;;;;;;5.25;1.80;;;;;;;18.59;51.28;97926.47;4425648;32;20437;-84
2023/06/13 00:17:42;;;;;;;4.07;1.70;;;;;;;18.03;52.34;97922.00;4425240;32;20085;-84
2023/06/13 00:20:09;;;;;;;7.82;2.03;;;;;;;18.46;51.85;97921.34;4425482;32;20098;-84
2023/06/13 00:22:37;;;;;;;5.00;1.65;;;;;;;18.36;52.04;97920.41;4425499;32;20109;-84
2023/06/13 00:25:04;;;;;;;4.45;1.83;;;;;;;18.84;50.65;97915.81;4425228;32;20073;-84
2023/06/13 00:27:32;;;;;;;5.93;1.90;;;;;;;17.85;53.02;97915.53;4425478;32;20128;-84
2023/06/13 00:29:59;;;;;;;5.68;1.80;;;;;;;18.33;51.54;97916.25;4425350;32;20104;-83
2023/06/13 00:32:26;;;;;;;4.20;1.70;;;;;;;17.26;54.37;97912.91;4425124;32;20090;-84
2023/06/13 00:34:53;;;;;;;7.22;2.10;;;;;;;17.85;52.73;97913.75;4425617;32;20161;-84
2023/06/13 00:37:20;;;;;;;4.40;1.92;;;;;;;17.78;53.11;97917.78;4425515;32;20117;-84
2023/06/13 00:39:47;;;;;;;4.80;1.70;;;;;;;18.08;52.06;97911.22;4424984;32;20089;-84
2023/06/13 00:42:14;;;;;;;3.67;1.75;;;;;;;17.66;53.59;97915.22;4425429;32;20118;-84
2023/06/13 00:44:41;;;;;;;5.85;1.80;;;;;;;17.99;52.39;97920.56;4425166;32;20124;-83
2023/06/13 00:47:08;;;;;;;4.80;1.98;;;;;;;18.39;50.97;97904.47;4425480;32;20154;-84
2023/06/13 00:49:35;;;;;;;4.47;1.73;;;;;;;17.51;53.82;97912.78;4425208;32;20461;-84
2023/06/13 00:52:05;;;;;;;5.95;1.90;;;;;;;18.29;51.79;97893.94;4425082;32;20480;-84
2023/06/13 00:54:36;;;;;;;4.62;2.15;;;;;;;18.52;50.70;97897.37;4412011;32;20104;-84
2023/06/13 00:57:05;;;;;;;4.70;1.62;;;;;;;18.87;49.69;97899.88;4425480;32;20101;-84
2023/06/13 00:59:32;;;;;;;5.30;2.00;;;;;;;18.47;50.36;97900.34;4411167;32;20141;-83
2023/06/13 01:01:59;;;;;;;3.45;1.77;;;;;;;17.80;52.83;97894.19;4425319;32;20169;-84
2023/06/13 01:04:27;;;;;;;4.12;1.87;;;;;;;17.89;52.52;97890.88;4425238;32;20108;-84
2023/06/13 01:06:54;;;;;;;6.32;1.98;;;;;;;17.94;51.93;97891.38;4424399;32;20120;-84
2023/06/13 01:09:22;;;;;;;5.37;1.90;;;;;;;17.27;54.11;97898.91;4424805;32;20476;-84
2023/06/13 01:12:17;;;;;;;5.00;2.00;;;;;;;17.34;54.09;97900.97;4425063;32;20109;-84
2023/06/13 01:14:55;;;;;;;5.75;2.30;;;;;;;17.75;53.75;97898.91;4424891;32;20117;-84
2023/06/13 01:17:27;;;;;;;5.12;2.20;;;;;;;17.41;54.16;97908.34;4411498;32;20105;-84
2023/06/13 01:19:58;;;;;;;6.37;1.80;;;;;;;17.83;53.21;97892.16;4411058;32;20416;-83
2023/06/13 01:22:42;;;;;;;5.57;1.73;;;;;;;17.94;52.73;97901.81;4411495;32;20172;-84
2023/06/13 01:25:20;;;;;;;5.18;2.15;;;;;;;18.41;51.87;97897.37;4411377;32;20124;-84
2023/06/13 01:27:50;;;;;;;5.32;2.10;;;;;;;17.95;53.15;97893.03;4411395;32;20233;-83
2023/06/13 01:30:19;;;;;;;6.28;2.05;;;;;;;17.41;53.97;97893.50;4411191;32;20378;-84
2023/06/13 01:32:46;;;;;;;5.45;1.80;;;;;;;17.96;52.70;97886.03;4425006;32;20361;-84
2023/06/13 01:35:14;;;;;;;6.80;2.22;;;;;;;17.53;53.99;97886.56;4410921;32;20077;-84
2023/06/13 01:37:41;;;;;;;6.37;2.40;;;;;;;17.57;53.92;97886.25;4424920;32;20161;-84
2023/06/13 01:40:08;;;;;;;5.10;2.00;;;;;;;15.93;60.26;97883.03;4410860;32;20166;-83
2023/06/13 01:42:35;;;;;;;8.80;2.10;;;;;;;16.51;58.83;97883.47;4424506;32;20176;-83
2023/06/13 01:45:03;;;;;;;6.72;2.28;;;;;;;17.14;56.78;97880.72;4411282;32;20081;-83
2023/06/13 01:47:47;;;;;;;3.80;1.80;;;;;;;17.34;55.05;97874.91;4411149;32;20471;-84
2023/06/13 01:50:49;;;;;;;8.18;2.20;;;;;;;18.11;53.05;97867.44;4424773;32;20093;-84
2023/06/13 01:53:52;;;;;;;6.55;1.90;;;;;;;18.08;52.83;97872.91;4411190;32;20459;-84
2023/06/13 01:56:22;;;;;;;5.45;2.00;;;;;;;18.42;52.29;97867.69;4346814;33;20159;-84
2023/06/13 01:58:55;;;;;;;5.03;2.12;;;;;;;18.97;50.62;97856.38;4398270;32;20161;-84
2023/06/13 02:01:24;;;;;;;8.90;2.10;;;;;;;18.88;50.88;97864.12;4424689;32;20110;-84
2023/06/13 02:03:51;;;;;;;8.00;1.70;;;;;;;18.73;51.51;97868.78;4424314;32;20104;-84
2023/06/13 02:06:18;;;;;;;6.05;2.03;;;;;;;18.60;51.73;97866.25;4424616;32;20109;-84
2023/06/13 02:08:45;;;;;;;8.45;2.90;;;;;;;18.80;51.34;97854.25;4424484;32;20137;-84
2023/06/13 02:11:12;;;;;;;6.80;1.98;;;;;;;19.54;49.41;97857.84;4424034;32;20169;-84
2023/06/13 02:13:39;;;;;;;5.28;1.80;;;;;;;18.31;51.97;97854.63;4424541;32;20161;-84
2023/06/13 02:16:06;;;;;;;6.97;2.15;;;;;;;17.58;53.48;97859.22;4424150;32;20217;-83
2023/06/13 02:18:33;;;;;;;6.25;1.90;;;;;;;18.50;51.36;97868.78;4424359;32;20093;-84
2023/06/13 02:21:00;;;;;;;6.20;2.08;;;;;;;18.59;50.54;97861.97;4426333;32;20098;-84
2023/06/13 02:23:27;;;;;;;6.60;1.90;;;;;;;18.24;51.79;97869.09;4426004;32;20090;-84
2023/06/13 02:25:55;;;;;;;6.93;2.30;;;;;;;17.88;52.88;97865.75;4426399;32;20078;-84
2023/06/13 02:28:22;;;;;;;4.50;1.90;;;;;;;18.12;52.68;97868.25;4426269;32;20089;-84
2023/06/13 02:30:49;;;;;;;6.97;1.83;;;;;;;17.61;53.78;97860.75;4425965;32;20180;-84
2023/06/13 02:33:17;;;;;;;10.63;2.50;;;;;;;17.58;54.29;97863.59;4426185;32;20491;-83
2023/06/13 02:35:45;;;;;;;5.82;2.20;;;;;;;17.54;54.51;97857.75;4426253;32;20094;-84
2023/06/13 02:38:12;;;;;;;6.20;2.15;;;;;;;17.86;54.19;97859.78;4425843;32;20097;-83
2023/06/13 02:40:39;;;;;;;7.68;2.40;;;;;;;17.36;55.98;97856.53;4426227;32;20103;-83
2023/06/13 02:43:07;;;;;;;6.20;2.42;;;;;;;17.38;56.20;97862.47;4426135;32;20475;-84
2023/06/13 02:45:34;;;;;;;6.22;2.50;;;;;;;17.22;56.89;97857.50;4425797;32;20086;-84
2023/06/13 02:48:01;;;;;;;7.45;2.17;;;;;;;17.39;56.70;97858.06;4426206;32;20111;-84
2023/06/13 02:50:28;;;;;;;5.53;2.00;;;;;;;18.55;52.37;97851.91;4425981;32;20089;-83
2023/06/13 02:52:54;;;;;;;5.60;2.10;;;;;;;18.37;52.43;97851.53;4425704;32;20400;-83
2023/06/13 02:55:22;;;;;;;4.50;2.08;;;;;;;18.52;51.86;97847.75;4426118;32;20544;-84
2023/06/13 02:57:49;;;;;;;6.20;1.75;;;;;;;17.91;53.62;97852.44;4426178;32;20702;-84
2023/06/13 03:00:16;;;;;;;6.22;2.12;;;;;;;18.36;52.19;97853.31;4425684;32;20121;-84
2023/06/13 03:02:43;;;;;;;6.28;2.08;;;;;;;18.37;51.97;97852.37;4426080;32;20172;-83
2023/06/13 03:05:15;;;;;;;6.07;1.87;;;;;;;17.82;53.32;97853.13;4425703;32;20074;-84
2023/06/13 03:07:46;;;;;;;6.87;2.20;;;;;;;18.06;53.12;97845.22;4426147;32;20101;-84
2023/06/13 03:10:14;;;;;;;6.95;2.10;;;;;;;18.03;53.18;97842.84;4425732;32;20098;-84
2023/06/13 03:12:42;;;;;;;6.30;2.08;;;;;;;17.75;53.66;97847.53;4425688;32;20108;-84
2023/06/13 03:15:11;;;;;;;7.20;1.87;;;;;;;18.09;53.10;97845.84;4426042;32;20754;-84
2023/06/13 03:17:39;;;;;;;6.82;2.08;;;;;;;17.80;53.70;97842.81;4425959;32;20706;-84
2023/06/13 03:20:06;;;;;;;4.78;2.00;;;;;;;17.66;54.45;97840.38;4425530;32;20604;-84
2023/06/13 03:22:33;;;;;;;6.82;2.10;;;;;;;17.89;53.66;97849.97;4426025;32;20101;-84
2023/06/13 03:25:04;;;;;;;9.00;2.20;;;;;;;17.69;54.37;97845.41;4425853;32;20392;-83
2023/06/13 03:27:32;;;;;;;4.93;2.05;;;;;;;17.94;53.13;97849.59;4425677;32;20163;-83
2023/06/13 03:30:00;;;;;;;7.70;2.12;;;;;;;17.82;53.02;97846.13;4425527;32;20110;-83
2023/06/13 03:32:27;;;;;;;5.30;1.80;;;;;;;17.48;54.36;97852.19;4425949;32;20086;-83
2023/06/13 03:34:54;;;;;;;5.80;2.08;;;;;;;16.93;56.60;97862.22;4425711;32;20500;-84
2023/06/13 03:37:21;;;;;;;9.07;2.28;;;;;;;16.36;58.91;97860.13;4425770;32;20158;-84
2023/06/13 03:39:47;;;;;;;9.07;1.90;;;;;;;16.56;58.30;97858.75;4411901;32;20110;-84
2023/06/13 03:42:14;;;;;;;8.23;2.25;;;;;;;16.73;58.05;97861.03;4425400;32;20110;-84
2023/06/13 03:44:46;;;;;;;6.70;2.03;;;;;;;16.62;59.26;97852.28;4425768;32;20124;-84
2023/06/13 03:47:14;;;;;;;8.20;2.58;;;;;;;16.90;59.07;97859.00;4425642;32;20102;-84
2023/06/13 03:49:43;;;;;;;8.25;2.10;;;;;;;16.84;61.42;97864.66;4425660;32;20449;-84
2023/06/13 03:52:11;;;;;;;5.15;1.90;;;;;;;17.93;58.81;97858.38;4425641;32;20404;-84
2023/06/13 03:54:38;;;;;;;6.95;1.87;;;;;;;18.56;55.53;97867.44;4425412;32;20086;-84
2023/06/13 03:57:06;;;;;;;7.03;1.92;;;;;;;19.12;52.10;97867.37;4425728;32;20779;-84
2023/06/13 03:59:35;;;;;;;5.97;1.80;;;;;;;19.43;50.45;97865.72;4425545;32;20151;-84
2023/06/13 04:02:03;;;;;;;4.55;2.10;;;;;;;19.02;51.38;97869.06;4425399;32;20145;-84
2023/06/13 04:04:32;;;;;;;6.85;2.25;;;;;;;18.86;52.66;97859.00;4425659;32;20150;-84
2023/06/13 04:07:04;;;;;;;7.07;2.10;;;;;;;18.93;52.07;97861.97;4425588;32;20155;-84
2023/06/13 04:09:31;;;;;;;9.25;2.40;;;;;;;18.71;52.62;97858.44;4425056;32;20116;-84
2023/06/13 04:11:58;;;;;;;6.28;2.40;;;;;;;19.44;50.36;97863.94;4425515;32;20154;-84
2023/06/13 04:14:25;;;;;;;7.97;2.20;;;;;;;19.66;49.69;97866.50;4425636;32;20106;-84
2023/06/13 04:16:52;;;;;;;9.15;2.25;;;;;;;19.31;50.49;97866.72;4425144;32;20150;-84
2023/06/13 04:19:23;;;;;;;8.55;3.55;;;;;;;18.42;53.12;97865.91;4425436;32;20098;-84
2023/06/13 04:21:51;;;;;;;8.82;2.15;;;;;;;18.07;54.69;97868.59;4425602;32;20104;-84
2023/06/13 04:24:18;;;;;;;7.55;2.30;;;;;;;18.57;52.99;97866.50;4425143;32;20109;-84
2023/06/13 04:26:45;;;;;;;5.00;2.10;;;;;;;18.74;52.15;97871.28;4425528;32;20408;-84
2023/06/13 04:29:15;;;;;;;6.22;1.90;;;;;;;18.76;52.15;97864.12;4425059;32;20141;-83
2023/06/13 04:31:43;;;;;;;8.00;2.08;;;;;;;18.60;54.07;97878.47;4425240;32;20426;-84
2023/06/13 04:34:13;;;;;;;7.90;2.30;;;;;;;18.86;54.33;97873.87;4425462;32;20102;-84
2023/06/13 04:36:41;;;;;;;6.18;2.28;;;;;;;19.14;53.44;97872.47;4425240;32;20081;-84
2023/06/13 04:39:08;;;;;;;5.78;2.10;;;;;;;19.43;52.85;97876.19;4425317;32;20106;-84
2023/06/13 04:41:37;;;;;;;5.93;1.90;;;;;;;20.06;51.64;97877.09;4424819;32;20108;-84
2023/06/13 04:44:05;;;;;;;5.62;2.08;;;;;;;20.34;50.24;97878.22;4424849;32;20082;-84
2023/06/13 04:46:32;;;;;;;5.40;1.87;;;;;;;20.48;49.74;97872.66;4425442;32;20116;-84
2023/06/13 04:49:00;;;;;;;6.57;1.95;;;;;;;20.45;49.59;97878.16;4425378;32;20098;-84
2023/06/13 04:51:28;;;;;;;4.70;1.98;;;;;;;20.59;50.60;97881.38;4425018;32;20361;-84
2023/06/13 04:53:59;;;;;;;6.35;2.17;;;;;;;20.47;50.51;97886.72;4411457;32;20089;-84
2023/06/13 04:56:27;;;;;;;5.05;2.03;;;;;;;20.29;50.63;97885.62;4425421;32;20161;-84
2023/06/13 04:58:55;;;;;;;5.85;2.12;;;;;;;20.52;50.34;97891.56;4424914;32;20588;-84
2023/06/13 05:01:26;;;;;;;5.93;1.83;;;;;;;20.71;48.80;97893.44;4425209;32;20086;-84
2023/06/13 05:03:55;;;;;;;6.72;2.10;;;;;;;20.76;49.17;97886.84;4425554;32;20116;-84
2023/06/13 05:06:27;;;;;;;5.95;1.90;;;;;;;21.33;48.32;97893.22;4424954;32;20093;-84
2023/06/13 05:08:54;;;;;;;4.78;1.80;;;;;;;22.33;46.28;97892.03;4424491;32;20161;-84
2023/06/13 05:11:21;;;;;;;6.37;2.00;;;;;;;23.17;43.67;97892.78;4424416;32;20168;-84
2023/06/13 05:13:48;;;;;;;5.20;2.17;;;;;;;23.70;41.97;97884.09;4425123;32;20109;-85
2023/06/13 05:16:17;;;;;;;6.07;2.17;;;;;;;24.06;41.24;97892.81;4425209;32;20405;-84
2023/06/13 05:18:44;;;;;;;5.43;2.12;;;;;;;24.56;40.53;97891.31;4424645;32;20157;-84
2023/06/13 05:21:16;;;;;;;5.55;1.92;;;;;;;26.02;38.47;97888.22;4424615;32;20116;-85
2023/06/13 05:23:44;;;;;;;6.55;2.22;;;;;;;27.70;35.08;97895.88;4411521;32;20108;-84
2023/06/13 05:26:11;;;;;;;5.43;2.10;;;;;;;29.16;32.46;97896.22;4424847;32;20085;-84
2023/06/13 05:28:40;;;;;;;4.93;2.00;;;;;;;30.33;30.62;97897.56;4424970;32;20090;-84
2023/06/13 05:31:06;;;;;;;4.90;1.98;;;;;;;30.95;27.80;97888.72;4424989;32;20100;-84
2023/06/13 05:33:35;;;;;;;6.10;2.17;;;;;;;31.87;26.94;97887.34;4424763;32;20128;-84
2023/06/13 05:36:02;;;;;;;6.00;2.17;;;;;;;32.73;26.06;97889.91;4425061;32;20097;-84
2023/06/13 05:38:29;;;;;;;4.90;2.20;;;;;;;33.27;24.66;97900.19;4424930;32;20475;-84
2023/06/13 05:40:56;;;;;;;5.50;2.22;;;;;;;33.48;23.76;97893.75;4424646;32;20186;-84
2023/06/13 05:43:23;;;;;;;6.72;2.40;;;;;;;33.96;23.12;97895.91;4424820;32;20082;-84
2023/06/13 05:45:50;;;;;;;7.00;2.37;;;;;;;33.25;22.55;97894.25;4424939;32;20093;-83
2023/06/13 05:48:17;;;;;;;6.65;2.40;;;;;;;32.05;24.22;97892.88;4424552;32;20136;-83
2023/06/13 05:50:44;;;;;;;5.37;1.92;;;;;;;31.81;24.58;97891.66;4424837;32;20158;-83
2023/06/13 05:53:11;;;;;;;4.60;2.28;;;;;;;31.92;25.01;97888.38;4424737;32;20114;-82
2023/06/13 05:55:38;;;;;;;4.78;2.08;;;;;;;31.95;25.37;97887.13;4424434;32;20112;-83
2023/06/13 05:58:05;;;;;;;7.03;2.30;;;;;;;29.50;27.90;97880.47;4424983;32;20142;-82
2023/06/13 06:00:32;;;;;;;6.80;2.20;;;;;;;28.29;30.21;97880.16;4426019;32;20097;-84
2023/06/13 06:03:04;;;;;;;5.93;2.20;;;;;;;30.04;27.38;97879.94;4427572;32;20146;-83
2023/06/13 06:05:32;;;;;;;5.97;2.20;;;;;;;30.90;25.62;97872.50;4431122;32;20055;-82
2023/06/13 06:07:59;;;;;;;5.97;2.50;;;;;;;29.16;27.85;97885.59;4429028;32;20070;-84
2023/06/13 06:10:26;;;;;;;5.18;2.10;;;;;;;30.66;25.54;97876.50;4426247;32;20098;-84
2023/06/13 06:12:53;;;;;;;6.12;1.90;;;;;;;28.77;28.84;97874.28;4427489;32;20109;-83
2023/06/13 06:15:20;;;;;;;6.93;2.12;;;;;;;29.42;27.49;97882.41;4436089;32;20085;-86
2023/06/13 06:17:47;;;;;;;4.70;2.12;;;;;;;30.38;26.94;97879.16;4437679;32;20085;-84
2023/06/13 06:20:14;;;;;;;3.87;1.92;;;;;;;30.73;26.59;97874.69;4433455;32;20090;-82
2023/06/13 06:22:41;;;;;;;4.43;2.20;;;;;;;28.00;29.86;97879.06;4424099;32;20145;-80
2023/06/13 06:25:11;;;;;;;5.95;2.00;;;;;;;29.13;28.34;97885.97;4424325;32;20101;-80
2023/06/13 06:27:41;;;;;;;5.97;2.20;;;;;;;29.52;27.57;97891.75;4424357;32;20098;-80
2023/06/13 06:30:09;;;;;;;4.80;2.00;;;;;;;26.19;31.06;97881.94;4424469;32;20169;-83
2023/06/13 06:32:36;;;;;;;4.53;2.25;;;;;;;27.27;30.04;97879.56;4424752;32;20125;-79
2023/06/13 06:35:06;;;;;;;5.10;2.10;;;;;;;27.23;30.23;97881.75;4424381;32;20153;-85
2023/06/13 06:37:35;;;;;;;9.20;2.30;;;;;;;27.62;30.26;97879.00;4423922;32;20464;-86
2023/06/13 06:40:02;;;;;;;6.80;2.08;;;;;;;27.06;29.51;97875.72;4423823;32;20090;-86
2023/06/13 06:42:29;;;;;;;5.65;2.05;;;;;;;27.33;29.03;97868.28;4423745;32;20134;-86
2023/06/13 06:44:56;;;;;;;5.45;2.03;;;;;;;27.08;29.00;97862.31;4424169;32;20542;-86
2023/06/13 06:47:23;;;;;;;5.45;2.50;;;;;;;27.37;29.00;97859.81;4424065;32;20093;-85
2023/06/13 06:49:50;;;;;;;6.87;2.10;;;;;;;25.11;33.12;97872.44;4423531;32;20112;-86
2023/06/13 06:52:17;;;;;;;5.10;2.08;;;;;;;24.41;34.58;97868.16;4423816;32;20104;-85
2023/06/13 06:54:44;;;;;;;5.28;2.30;;;;;;;25.01;34.33;97864.63;4424093;32;20097;-85
2023/06/13 06:57:12;;;;;;;6.35;2.20;;;;;;;25.64;33.02;97862.28;4423628;32;20098;-85
2023/06/13 06:59:38;;;;;;;7.45;2.22;;;;;;;26.77;31.27;97867.56;4423639;32;20152;-85
2023/06/13 07:02:07;;;;;;;6.10;2.17;;;;;;;25.63;32.66;97873.00;4425966;32;20063;-85
2023/06/13 07:04:34;;;;;;;6.35;2.12;;;;;;;25.02;33.08;97875.06;4424883;32;20644;-84
2023/06/13 07:07:01;;;;;;;4.68;2.12;;;;;;;24.47;34.39;97872.00;4425866;32;20111;-84
2023/06/13 07:09:28;;;;;;;5.37;2.00;;;;;;;25.47;32.16;97870.34;4425770;32;20124;-84
2023/06/13 07:11:57;;;;;;;4.80;1.90;;;;;;;26.39;31.72;97862.06;4425450;32;20086;-83
2023/06/13 07:14:25;;;;;;;4.25;2.00;;;;;;;25.31;32.75;97869.34;4425929;32;20116;-83
2023/06/13 07:16:54;;;;;;;5.93;2.00;;;;;;;26.50;31.86;97864.34;4425869;32;20460;-83
2023/06/13 07:19:21;;;;;;;4.43;2.10;;;;;;;26.84;31.12;97868.53;4411792;32;20108;-84
2023/06/13 07:21:49;;;;;;;4.32;2.00;;;;;;;27.12;29.75;97860.97;4425687;32;20090;-83
2023/06/13 07:24:16;;;;;;;4.80;1.60;;;;;;;26.27;31.02;97868.69;4425902;32;20093;-84
2023/06/13 07:26:43;;;;;;;4.95;1.80;;;;;;;26.65;29.05;97858.34;4411771;32;20120;-85
2023/06/13 07:29:10;;;;;;;4.93;2.10;;;;;;;26.38;30.75;97862.25;4426143;32;20503;-84
2023/06/13 07:31:37;;;;;;;4.28;1.80;;;;;;;24.64;33.83;97857.06;4425470;32;20078;-84
2023/06/13 07:34:04;;;;;;;5.22;2.05;;;;;;;25.86;31.88;97862.62;4425733;32;20158;-84
2023/06/13 07:36:41;;;;;;;5.30;2.00;;;;;;;27.43;30.45;97868.03;4425842;32;20164;-86
2023/06/13 07:39:12;;;;;;;5.47;2.05;;;;;;;28.61;28.80;97863.88;4425340;32;20104;-86
2023/06/13 07:41:39;;;;;;;5.07;2.00;;;;;;;29.21;28.87;97862.75;4425540;32;20473;-85
2023/06/13 07:44:06;;;;;;;8.93;2.00;;;;;;;29.20;28.01;97857.63;4425820;32;20153;-87
2023/06/13 07:46:33;;;;;;;3.60;1.83;;;;;;;28.87;27.87;97855.41;4425541;32;20098;-87
2023/06/13 07:49:00;;;;;;;4.50;1.73;;;;;;;29.21;27.26;97846.81;4425627;32;20121;-87
2023/06/13 07:51:28;;;;;;;6.07;1.90;;;;;;;28.41;27.49;97839.72;4411867;32;20073;-87
2023/06/13 07:53:55;;;;;;;4.55;1.73;;;;;;;27.77;28.54;97844.63;4425374;32;20507;-85
2023/06/13 07:56:22;;;;;;;3.40;1.90;;;;;;;27.37;29.22;97848.38;4425453;32;20102;-85
2023/06/13 07:58:49;;;;;;;5.82;2.20;;;;;;;28.48;27.15;97850.41;4425614;32;20086;-86
2023/06/13 08:01:16;;;;;;;3.58;1.80;;;;;;;28.81;27.36;97848.16;4423618;32;20077;-85
2023/06/13 08:03:46;;;;;;;6.45;2.17;;;;;;;28.63;26.82;97848.56;4425593;32;20761;-85
2023/06/13 08:06:13;;;;;;;4.60;2.00;;;;;;;28.25;27.32;97850.44;4425633;32;20101;-86
2023/06/13 08:08:40;;;;;;;3.75;1.67;;;;;;;28.18;29.14;97846.91;4425092;32;20507;-86
2023/06/13 08:11:09;;;;;;;4.78;2.10;;;;;;;28.90;28.49;97852.41;4411743;32;20139;-86
2023/06/13 08:13:36;;;;;;;4.60;2.28;;;;;;;29.19;28.42;97856.00;4425524;32;20504;-86
2023/06/13 08:16:03;;;;;;;4.15;2.00;;;;;;;29.07;27.33;97848.53;4425154;32;20145;-85
2023/06/13 08:18:30;;;;;;;5.25;2.08;;;;;;;29.01;26.71;97843.13;4424003;32;20097;-84
2023/06/13 08:20:57;;;;;;;5.85;1.87;;;;;;;28.86;27.05;97848.44;4425320;32;20089;-84
2023/06/13 08:23:24;;;;;;;5.15;2.05;;;;;;;29.10;27.06;97848.12;4425466;32;20112;-84
2023/06/13 08:25:51;;;;;;;4.07;1.73;;;;;;;29.55;26.35;97845.34;4425479;32;20116;-85
2023/06/13 08:28:18;;;;;;;4.22;1.85;;;;;;;29.71;27.16;97842.44;4425171;32;20104;-85
2023/06/13 08:30:46;;;;;;;5.32;2.22;;;;;;;29.77;26.92;97844.31;4425511;32;20489;-85
2023/06/13 08:33:13;;;;;;;6.85;2.30;;;;;;;29.99;26.56;97839.78;4425105;32;20159;-85
2023/06/13 08:35:40;;;;;;;8.20;2.08;;;;;;;30.00;25.99;97846.75;4422692;32;20502;-85
2023/06/13 08:38:09;;;;;;;5.15;2.00;;;;;;;30.39;25.79;97840.06;4421894;32;20129;-85
2023/06/13 08:40:36;;;;;;;8.05;2.25;;;;;;;28.86;27.36;97848.44;4424884;32;20153;-84
2023/06/13 08:43:03;;;;;;;4.28;1.67;;;;;;;27.77;28.56;97839.34;4423321;32;20115;-85
2023/06/13 08:45:30;;;;;;;5.47;2.00;;;;;;;27.02;29.14;97845.31;4424431;32;20090;-85
2023/06/13 08:47:58;;;;;;;7.68;2.00;;;;;;;27.26;30.49;97846.97;4410211;32;20164;-85
2023/06/13 08:50:26;;;;;;;6.28;2.03;;;;;;;28.49;28.57;97844.91;4410367;32;20085;-85
2023/06/13 08:52:55;;;;;;;5.37;2.10;;;;;;;27.26;30.26;97836.37;4425197;32;20110;-85
2023/06/13 08:55:23;;;;;;;6.78;2.12;;;;;;;29.40;28.93;97840.06;4425276;32;20090;-86
2023/06/13 08:58:11;;;;;;;4.60;2.40;;;;;;;29.84;27.14;97829.22;4425259;32;20146;-85
2023/06/13 09:00:39;;;;;;;3.45;1.87;;;;;;;30.66;26.42;97833.91;4425195;32;20141;-85
2023/06/13 09:03:09;;;;;;;4.95;1.98;;;;;;;29.99;27.68;97836.28;4424529;32;20113;-85
2023/06/13 09:05:36;;;;;;;6.55;1.90;;;;;;;30.52;25.55;97826.84;4411767;32;20543;-85
2023/06/13 09:08:04;;;;;;;4.50;1.90;;;;;;;31.29;24.94;97834.53;4411534;32;20136;-85
2023/06/13 09:10:51;;;;;;;5.55;2.08;;;;;;;29.84;26.84;97831.88;4424756;32;20081;-85
2023/06/13 09:13:19;;;;;;;6.15;2.05;;;;;;;29.14;27.83;97840.62;4411344;32;20102;-85
2023/06/13 09:15:46;;;;;;;4.70;1.80;;;;;;;28.93;27.51;97841.41;4425194;32;20110;-85
2023/06/13 09:18:14;;;;;;;6.85;2.30;;;;;;;29.33;27.39;97842.66;4411032;32;20089;-83
2023/06/13 09:20:41;;;;;;;4.62;2.17;;;;;;;28.03;28.10;97841.56;4425241;32;20081;-84
2023/06/13 09:23:13;;;;;;;4.30;2.08;;;;;;;27.49;29.55;97854.91;4425066;32;20090;-84
2023/06/13 09:25:40;;;;;;;5.12;2.20;;;;;;;26.97;31.78;97844.13;4424624;32;20146;-86
2023/06/13 09:28:28;;;;;;;6.65;2.05;;;;;;;27.62;30.87;97851.66;4410885;32;20093;-86
2023/06/13 09:30:58;;;;;;;7.70;2.17;;;;;;;28.33;28.33;97834.50;4424771;32;20195;-85
2023/06/13 09:33:26;;;;;;;5.53;2.20;;;;;;;27.43;28.77;97836.25;4424881;32;20117;-85
2023/06/13 09:35:52;;;;;;;4.72;2.25;;;;;;;27.78;28.23;97824.25;4424956;32;20133;-87
2023/06/13 09:38:23;;;;;;;4.25;1.85;;;;;;;29.00;27.30;97829.03;4424448;32;20092;-85
2023/06/13 09:40:55;;;;;;;5.43;2.47;;;;;;;27.01;31.50;97822.44;4423985;32;20395;-84
2023/06/13 09:43:23;;;;;;;5.50;2.10;;;;;;;27.23;31.61;97828.78;4425487;32;20114;-84
2023/06/13 09:45:53;;;;;;;4.82;1.98;;;;;;;25.26;36.39;97829.37;4426063;32;20097;-84
2023/06/13 09:48:21;;;;;;;5.62;2.25;;;;;;;25.07;34.61;97825.22;4424927;32;20433;-84
2023/06/13 09:50:51;;;;;;;4.85;2.22;;;;;;;23.91;35.59;97821.37;4424733;32;20142;-84
2023/06/13 09:53:18;;;;;;;4.90;2.30;;;;;;;24.29;34.84;97819.28;4424838;32;20096;-84
2023/06/13 09:55:45;;;;;;;6.40;2.30;;;;;;;26.21;33.75;97827.03;4425019;32;20133;-85
2023/06/13 09:58:12;;;;;;;6.22;2.25;;;;;;;26.33;32.85;97822.22;4425655;32;20081;-85
2023/06/13 10:00:58;;;;;;;5.55;2.20;;;;;;;26.86;32.91;97820.69;4426527;32;20069;-85
2023/06/13 10:03:27;;;;;;;6.50;2.10;;;;;;;26.88;33.46;97824.00;4427486;32;20136;-84
2023/06/13 10:06:00;;;;;;;4.45;2.00;;;;;;;26.48;34.24;97823.19;4427537;32;20057;-84
2023/06/13 10:08:35;;;;;;;7.05;2.03;;;;;;;26.73;33.77;97814.16;4426227;32;20146;-84
2023/06/13 10:11:18;;;;;;;5.55;2.35;;;;;;;27.16;33.00;97813.78;4430652;32;20077;-85
2023/06/13 10:14:07;;;;;;;5.60;2.30;;;;;;;28.23;29.12;97808.19;4419161;32;20073;-83
2023/06/13 10:16:41;;;;;;;6.60;2.40;;;;;;;27.75;29.84;97804.19;4422672;32;20112;-84
2023/06/13 10:19:28;;;;;;;7.40;2.10;;;;;;;27.79;28.58;97796.72;4431381;32;20498;-84
2023/06/13 10:21:55;;;;;;;5.62;2.17;;;;;;;29.80;27.32;97801.41;4417260;32;20507;-83
2023/06/13 10:24:23;;;;;;;6.85;2.40;;;;;;;30.80;25.47;97797.47;4410971;32;20431;-84
2023/06/13 10:26:54;;;;;;;6.85;2.40;;;;;;;30.12;25.15;97794.69;4410570;32;20528;-84
2023/06/13 10:29:33;;;;;;;6.78;2.28;;;;;;;30.94;23.56;97793.81;4412561;32;20097;-84
2023/06/13 10:32:35;;;;;;;7.45;2.53;;;;;;;29.89;27.04;97796.75;4416060;32;20062;-83
2023/06/13 10:35:24;;;;;;;5.47;2.30;;;;;;;28.54;29.25;97793.94;4429674;32;20153;-83
2023/06/13 10:38:33;;;;;;;7.12;2.03;;;;;;;28.28;30.02;97793.56;4414734;32;20117;-83
2023/06/13 10:41:39;;;;;;;5.53;2.00;;;;;;;27.75;30.70;97793.59;4429137;32;20480;-83
2023/06/13 10:44:47;;;;;;;4.43;2.17;;;;;;;27.64;29.92;97783.41;4402421;32;20109;-84
2023/06/13 10:47:20;;;;;;;6.75;2.40;;;;;;;28.18;29.93;97780.59;4430563;32;20093;-84
2023/06/13 10:49:49;;;;;;;6.05;2.75;;;;;;;29.27;29.04;97792.13;4425751;32;20098;-84
2023/06/13 10:52:18;;;;;;;7.20;2.83;;;;;;;29.98;26.80;97794.75;4425923;32;20081;-83
2023/06/13 10:54:52;;;;;;;5.87;2.40;;;;;;;29.88;25.68;97782.63;4412237;32;20144;-84
2023/06/13 10:57:20;;;;;;;4.68;2.20;;;;;;;30.67;26.16;97781.47;4425743;32;20157;-83
2023/06/13 10:59:49;;;;;;;5.43;2.12;;;;;;;31.34;25.04;97784.09;4427878;32;20475;-78
2023/06/13 11:02:17;;;;;;;6.15;2.15;;;;;;;28.93;29.10;97782.19;4425560;32;20093;-79
2023/06/13 11:04:49;;;;;;;5.12;2.33;;;;;;;26.76;31.76;97782.03;4426000;32;20420;-79
2023/06/13 11:07:22;;;;;;;6.25;2.40;;;;;;;25.82;32.29;97769.63;4425991;32;20417;-79
2023/06/13 11:10:02;;;;;;;5.28;2.30;;;;;;;25.06;34.24;97776.06;4425373;32;20111;-79
2023/06/13 11:12:30;;;;;;;5.78;2.53;;;;;;;25.21;33.68;97770.16;4425700;32;20108;-79
2023/06/13 11:14:59;;;;;;;6.03;2.45;;;;;;;24.90;34.88;97780.47;4425765;32;20107;-79
2023/06/13 11:17:27;;;;;;;5.93;2.30;;;;;;;25.37;33.42;97780.72;4425652;32;20094;-79
2023/06/13 11:19:56;;;;;;;8.80;2.25;;;;;;;24.50;35.04;97780.19;4425762;32;20089;-79
2023/06/13 11:22:23;;;;;;;9.13;2.50;;;;;;;24.08;35.41;97777.50;4424767;32;20547;-79
2023/06/13 11:24:52;;;;;;;4.87;2.25;;;;;;;25.35;33.05;97778.22;4425216;32;20098;-79
2023/06/13 11:27:20;;;;;;;5.40;2.03;;;;;;;26.10;32.96;97772.69;4425790;32;20469;-79
2023/06/13 11:29:48;;;;;;;5.20;2.25;;;;;;;26.34;33.99;97779.72;4425584;32;20112;-79
2023/06/13 11:32:15;;;;;;;6.32;2.47;;;;;;;26.40;31.00;97763.22;4411047;32;20098;-79
2023/06/13 11:34:46;;;;;;;5.22;2.30;;;;;;;26.91;29.52;97758.31;4411999;32;20125;-79
2023/06/13 11:37:45;;;;;;;4.47;2.03;;;;;;;25.79;32.26;97753.28;4425556;32;20109;-78
2023/06/13 11:40:22;;;;;;;5.87;2.50;;;;;;;26.02;32.00;97743.63;4412197;32;20141;-79
2023/06/13 11:42:50;;;;;;;7.57;2.53;;;;;;;25.56;30.37;97743.38;4418357;27;20094;-80
2023/06/13 11:45:17;;;;;;;7.07;2.42;;;;;;;26.50;30.25;97747.94;4395455;32;20104;-81